Time;durP1;ratioP1;P1;durP2;ratioP2;P2;SDS_P1;SDS_P2;PMS_P1;PMS_P2;Temp;Humidity;BMP_temperature;BMP_pressure;BME280_temperature;BME280_humidity;BME280_pressure;Samples;Min_cycle;Max_cycle;Signal;HPM_P1;HPM_P2
2023/07/20 00:01:45;;;;;;;2.22;1.63;;;23.20;95.30;;;;;;7389503;19;20127;-75
2023/07/20 00:04:11;;;;;;;6.18;1.75;;;23.20;94.90;;;;;;7388942;19;20142;-75
2023/07/20 00:06:40;;;;;;;1.75;1.33;;;23.20;94.90;;;;;;7385291;19;20158;-75
2023/07/20 00:09:07;;;;;;;2.10;1.58;;;23.10;94.30;;;;;;7389665;19;20146;-75
2023/07/20 00:11:36;;;;;;;3.25;1.40;;;23.00;94.40;;;;;;7390818;19;20142;-75
2023/07/20 00:14:02;;;;;;;2.17;1.50;;;23.10;93.60;;;;;;7388068;19;20162;-75
2023/07/20 00:16:28;;;;;;;2.22;1.48;;;22.70;93.80;;;;;;7390533;19;20691;-75
2023/07/20 00:18:54;;;;;;;2.63;1.30;;;22.80;93.30;;;;;;7388561;19;20746;-75
2023/07/20 00:21:19;;;;;;;2.40;1.50;;;22.80;93.30;;;;;;7389692;19;20150;-75
2023/07/20 00:23:45;;;;;;;6.45;1.48;;;22.80;93.30;;;;;;7387995;19;20611;-75
2023/07/20 00:26:11;;;;;;;2.20;1.40;;;22.80;93.10;;;;;;7384997;19;20139;-74
2023/07/20 00:28:37;;;;;;;1.05;0.95;;;22.90;92.90;;;;;;7389324;19;20155;-75
2023/07/20 00:31:03;;;;;;;2.33;1.33;;;22.90;92.30;;;;;;7386733;19;20159;-75
2023/07/20 00:33:28;;;;;;;3.35;1.35;;;22.90;92.60;;;;;;7388578;19;20214;-74
2023/07/20 00:35:54;;;;;;;2.47;1.40;;;22.80;92.30;;;;;;7388072;19;20135;-74
2023/07/20 00:38:20;;;;;;;2.05;1.25;;;22.90;92.30;;;;;;7386216;19;20150;-74
2023/07/20 00:40:46;;;;;;;1.83;1.35;;;22.90;92.40;;;;;;7386564;19;20538;-74
2023/07/20 00:43:12;;;;;;;1.58;1.30;;;22.90;92.50;;;;;;7377933;19;20130;-75
2023/07/20 00:45:38;;;;;;;1.85;1.33;;;22.90;92.00;;;;;;7386466;19;20138;-75
2023/07/20 00:48:06;;;;;;;3.40;1.30;;;22.70;92.00;;;;;;7385448;19;20210;-75
2023/07/20 00:50:32;;;;;;;2.13;1.38;;;22.60;92.30;;;;;;7388654;19;20156;-74
2023/07/20 00:52:58;;;;;;;1.35;1.23;;;22.50;92.40;;;;;;7390104;19;20149;-75
2023/07/20 00:55:25;;;;;;;1.55;1.20;;;22.50;92.10;;;;;;7386899;19;20139;-74
2023/07/20 00:57:51;;;;;;;1.35;1.10;;;22.60;92.60;;;;;;7386244;19;20168;-75
2023/07/20 01:00:17;;;;;;;2.58;1.50;;;22.50;92.50;;;;;;7386738;19;20131;-75
2023/07/20 01:02:43;;;;;;;3.83;1.50;;;22.40;93.10;;;;;;7387206;19;20146;-75
2023/07/20 01:05:12;;;;;;;1.17;1.00;;;22.50;92.80;;;;;;7387947;19;20134;-75
2023/07/20 01:08:02;;;;;;;5.63;1.58;;;22.50;92.50;;;;;;7385364;19;20137;-74
2023/07/20 01:10:42;;;;;;;1.63;1.13;;;22.60;92.60;;;;;;7385988;19;20141;-75
2023/07/20 01:13:10;;;;;;;2.10;1.38;;;22.60;92.50;;;;;;7389033;19;20481;-74
2023/07/20 01:15:35;;;;;;;1.20;1.00;;;22.40;92.80;;;;;;7385437;19;20161;-74
2023/07/20 01:18:01;;;;;;;1.85;1.20;;;22.40;93.00;;;;;;7387539;19;20134;-75
2023/07/20 01:20:29;;;;;;;1.95;1.10;;;22.20;93.20;;;;;;7386973;19;20579;-76
2023/07/20 01:23:40;;;;;;;2.58;1.25;;;22.10;93.30;;;;;;7386142;19;20127;-72
2023/07/20 01:26:31;;;;;;;1.35;1.08;;;22.20;93.40;;;;;;7381110;19;20143;-74
2023/07/20 01:29:18;;;;;;;2.58;1.40;;;22.30;93.40;;;;;;7384315;19;20149;-76
2023/07/20 01:31:45;;;;;;;1.77;1.23;;;22.30;93.70;;;;;;7387074;19;20164;-73
2023/07/20 01:34:14;;;;;;;1.52;1.10;;;22.30;93.60;;;;;;7385327;19;20139;-74
2023/07/20 01:36:41;;;;;;;1.50;1.05;;;22.20;93.70;;;;;;7388501;19;20139;-75
2023/07/20 01:39:08;;;;;;;2.75;1.25;;;22.20;94.00;;;;;;7385363;19;20138;-74
2023/07/20 01:41:34;;;;;;;1.30;1.20;;;22.10;94.40;;;;;;7386922;19;20131;-74
2023/07/20 01:44:00;;;;;;;1.50;1.27;;;22.10;94.00;;;;;;7386215;19;20141;-74
2023/07/20 01:46:26;;;;;;;1.70;1.23;;;22.10;94.10;;;;;;7384707;19;20146;-75
2023/07/20 01:48:52;;;;;;;2.17;1.52;;;22.00;94.50;;;;;;7385105;19;20479;-74
2023/07/20 01:51:18;;;;;;;1.73;1.20;;;21.90;94.80;;;;;;7399914;19;20134;-75
2023/07/20 01:53:44;;;;;;;1.52;1.10;;;21.90;94.70;;;;;;7399284;19;20478;-75
2023/07/20 01:56:12;;;;;;;3.70;1.30;;;21.90;94.60;;;;;;7392521;19;20130;-75
2023/07/20 01:58:38;;;;;;;1.75;1.08;;;21.80;95.20;;;;;;7400177;19;20161;-75
2023/07/20 02:01:03;;;;;;;3.30;1.38;;;21.90;95.00;;;;;;7397965;19;20154;-74
2023/07/20 02:03:29;;;;;;;1.73;1.40;;;21.90;95.00;;;;;;7400571;19;20491;-74
2023/07/20 02:05:56;;;;;;;2.42;1.70;;;22.00;95.00;;;;;;7396211;19;20162;-76
2023/07/20 02:08:22;;;;;;;4.40;1.48;;;22.00;95.20;;;;;;7401675;19;20131;-74
2023/07/20 02:10:48;;;;;;;2.28;1.55;;;22.00;95.30;;;;;;7400961;19;20479;-73
2023/07/20 02:13:14;;;;;;;4.68;1.58;;;22.00;95.10;;;;;;7400608;19;20148;-77
2023/07/20 02:15:42;;;;;;;2.83;1.40;;;21.90;95.30;;;;;;7399486;19;20157;-74
2023/07/20 02:18:08;;;;;;;3.03;1.42;;;21.80;95.50;;;;;;7395989;19;20163;-74
2023/07/20 02:20:35;;;;;;;2.85;1.35;;;21.90;95.80;;;;;;7400231;19;20209;-74
2023/07/20 02:23:00;;;;;;;1.83;1.30;;;21.80;95.80;;;;;;7399269;19;20134;-74
2023/07/20 02:25:26;;;;;;;3.58;1.38;;;21.80;96.10;;;;;;7400193;19;20513;-74
2023/07/20 02:27:52;;;;;;;2.10;1.38;;;21.90;95.60;;;;;;7397507;19;20613;-74
2023/07/20 02:30:18;;;;;;;4.05;1.70;;;21.80;95.80;;;;;;7398657;19;20533;-74
2023/07/20 02:32:48;;;;;;;3.55;1.63;;;21.80;95.70;;;;;;7401109;19;20138;-74
2023/07/20 02:35:15;;;;;;;2.38;1.50;;;21.70;96.00;;;;;;7398342;19;20183;-75
2023/07/20 02:37:40;;;;;;;2.63;1.50;;;21.70;96.00;;;;;;7398586;19;20135;-74
2023/07/20 02:40:07;;;;;;;1.90;1.35;;;21.70;96.10;;;;;;7398144;19;20179;-74
2023/07/20 02:42:33;;;;;;;2.17;1.65;;;21.60;96.10;;;;;;7398609;19;20134;-74
2023/07/20 02:44:59;;;;;;;4.15;1.33;;;21.60;96.20;;;;;;7397301;19;20144;-75
2023/07/20 02:47:25;;;;;;;3.47;1.60;;;21.70;96.50;;;;;;7396774;19;20793;-73
2023/07/20 02:49:50;;;;;;;2.42;1.20;;;21.50;96.40;;;;;;7399339;19;20614;-74
2023/07/20 02:52:16;;;;;;;3.92;1.65;;;21.40;96.90;;;;;;7397197;19;20229;-74
2023/07/20 02:54:42;;;;;;;1.48;1.17;;;21.30;97.10;;;;;;7399539;19;20126;-74
2023/07/20 02:57:08;;;;;;;3.92;1.30;;;21.40;97.10;;;;;;7396052;19;20599;-74
2023/07/20 02:59:33;;;;;;;4.57;1.35;;;21.40;97.20;;;;;;7399647;19;20605;-75
2023/07/20 03:01:59;;;;;;;3.42;1.48;;;21.40;97.20;;;;;;7391492;19;20137;-74
2023/07/20 03:04:28;;;;;;;3.65;1.30;;;21.30;97.40;;;;;;7391594;19;20153;-74
2023/07/20 03:06:53;;;;;;;2.10;1.45;;;21.40;97.50;;;;;;7389622;19;20135;-74
2023/07/20 03:09:19;;;;;;;2.05;1.20;;;21.40;97.50;;;;;;7392949;19;20482;-75
2023/07/20 03:11:45;;;;;;;3.60;1.67;;;21.50;97.60;;;;;;7390636;19;20250;-75
2023/07/20 03:14:11;;;;;;;2.90;1.30;;;21.50;97.50;;;;;;7392900;19;20142;-75
2023/07/20 03:16:37;;;;;;;2.60;1.40;;;21.50;97.80;;;;;;7390120;19;20261;-74
2023/07/20 03:19:03;;;;;;;2.08;1.60;;;21.50;97.80;;;;;;7390793;19;20863;-75
2023/07/20 03:21:29;;;;;;;1.70;1.30;;;21.50;98.00;;;;;;7392284;19;20247;-75
2023/07/20 03:23:55;;;;;;;3.25;1.20;;;21.50;98.00;;;;;;7392287;19;20551;-74
2023/07/20 03:26:21;;;;;;;2.85;1.65;;;21.50;98.10;;;;;;7387444;19;20138;-74
2023/07/20 03:28:46;;;;;;;1.77;1.25;;;21.40;98.10;;;;;;7392358;19;20127;-73
2023/07/20 03:31:14;;;;;;;2.28;1.30;;;21.30;98.50;;;;;;7390744;19;20146;-74
2023/07/20 03:33:40;;;;;;;1.63;1.40;;;21.30;98.90;;;;;;7390493;19;20540;-74
2023/07/20 03:36:06;;;;;;;1.63;1.17;;;21.30;98.70;;;;;;7390810;19;20151;-74
2023/07/20 03:38:32;;;;;;;4.80;1.50;;;21.30;98.80;;;;;;7389793;19;20138;-74
2023/07/20 03:40:59;;;;;;;1.52;1.30;;;21.40;99.00;;;;;;7389823;19;20162;-74
2023/07/20 03:43:26;;;;;;;2.42;1.10;;;21.40;98.90;;;;;;7391208;19;20147;-74
2023/07/20 03:45:53;;;;;;;2.13;1.40;;;21.30;99.00;;;;;;7389795;19;20130;-74
2023/07/20 03:48:21;;;;;;;1.77;1.33;;;21.30;99.10;;;;;;7387957;19;20155;-74
2023/07/20 03:50:49;;;;;;;3.75;1.42;;;21.30;99.30;;;;;;7391104;19;20178;-73
2023/07/20 03:53:15;;;;;;;2.15;1.50;;;21.40;99.30;;;;;;7389594;19;20141;-74
2023/07/20 03:55:52;;;;;;;1.50;1.40;;;21.40;99.40;;;;;;7388215;19;20143;-74
2023/07/20 03:58:19;;;;;;;3.72;1.60;;;21.40;99.40;;;;;;7387758;19;20158;-74
2023/07/20 04:00:50;;;;;;;2.35;1.38;;;21.40;99.30;;;;;;7389253;19;20172;-74
2023/07/20 04:03:17;;;;;;;3.47;1.52;;;21.30;99.40;;;;;;7389563;19;20979;-75
2023/07/20 04:05:44;;;;;;;2.55;1.60;;;21.30;99.60;;;;;;7390247;19;20138;-74
2023/07/20 04:08:13;;;;;;;2.42;1.30;;;21.30;99.60;;;;;;7389095;19;20147;-74
2023/07/20 04:10:39;;;;;;;3.03;1.38;;;21.40;99.60;;;;;;7390531;19;20143;-74
2023/07/20 04:13:05;;;;;;;2.97;1.58;;;21.40;99.50;;;;;;7389897;19;20146;-75
2023/07/20 04:15:31;;;;;;;1.38;1.25;;;21.40;99.70;;;;;;7388393;19;20143;-75
2023/07/20 04:17:57;;;;;;;2.88;1.55;;;21.40;99.80;;;;;;7387250;19;20179;-75
2023/07/20 04:20:23;;;;;;;2.33;1.35;;;21.40;99.80;;;;;;7390375;19;20152;-75
2023/07/20 04:22:49;;;;;;;2.50;1.50;;;21.30;99.90;;;;;;7389765;19;20142;-75
2023/07/20 04:25:16;;;;;;;3.15;1.50;;;21.30;99.90;;;;;;7387111;19;20147;-75
2023/07/20 04:27:42;;;;;;;2.50;1.30;;;21.30;99.90;;;;;;7387985;19;20147;-74
2023/07/20 04:30:11;;;;;;;3.20;1.40;;;21.30;99.90;;;;;;7388211;19;20156;-74
2023/07/20 04:32:37;;;;;;;2.55;1.55;;;21.30;99.90;;;;;;7389198;19;20239;-74
2023/07/20 04:35:07;;;;;;;2.75;1.50;;;21.30;99.90;;;;;;7390067;19;20622;-74
2023/07/20 04:37:33;;;;;;;1.40;1.20;;;21.40;99.90;;;;;;7388239;19;20215;-75
2023/07/20 04:39:59;;;;;;;4.72;1.50;;;21.40;99.90;;;;;;7388152;19;20159;-74
2023/07/20 04:42:25;;;;;;;2.10;1.40;;;21.50;99.90;;;;;;7388622;19;20623;-75
2023/07/20 04:44:52;;;;;;;1.85;1.42;;;21.30;99.90;;;;;;7388245;19;20143;-74
2023/07/20 04:47:17;;;;;;;3.38;1.20;;;21.30;99.90;;;;;;7386661;19;20222;-75
2023/07/20 04:49:43;;;;;;;5.07;1.70;;;21.30;99.90;;;;;;7388243;19;20160;-75
2023/07/20 04:52:09;;;;;;;4.75;1.60;;;21.40;99.90;;;;;;7387097;19;20168;-74
2023/07/20 04:54:35;;;;;;;1.88;1.30;;;21.40;99.90;;;;;;7387924;19;20534;-75
2023/07/20 04:57:01;;;;;;;1.60;1.20;;;21.40;99.90;;;;;;7387425;19;20146;-74
2023/07/20 04:59:26;;;;;;;1.50;1.40;;;21.40;99.90;;;;;;7387234;19;20490;-76
2023/07/20 05:01:52;;;;;;;3.50;1.70;;;21.50;99.90;;;;;;7386342;19;20154;-74
2023/07/20 05:04:18;;;;;;;1.48;1.25;;;21.70;99.90;;;;;;7386725;19;20156;-73
2023/07/20 05:06:44;;;;;;;3.72;1.48;;;21.80;99.90;;;;;;7385932;19;20130;-75
2023/07/20 05:09:10;;;;;;;3.13;1.33;;;21.70;99.90;;;;;;7386703;19;20150;-75
2023/07/20 05:11:35;;;;;;;2.92;1.50;;;21.70;99.90;;;;;;7386770;19;20134;-74
2023/07/20 05:14:01;;;;;;;2.15;1.50;;;21.80;99.90;;;;;;7388678;19;20591;-75
2023/07/20 05:16:27;;;;;;;2.25;1.30;;;21.80;99.90;;;;;;7385382;19;20733;-74
2023/07/20 05:18:52;;;;;;;4.78;1.50;;;21.80;99.90;;;;;;7388490;19;20138;-74
2023/07/20 05:21:18;;;;;;;3.05;1.40;;;21.80;99.90;;;;;;7387744;19;20138;-74
2023/07/20 05:23:45;;;;;;;4.45;1.77;;;21.80;99.90;;;;;;7387593;19;20151;-73
2023/07/20 05:26:10;;;;;;;1.90;1.30;;;21.80;99.90;;;;;;7381274;19;20146;-73
2023/07/20 05:28:36;;;;;;;2.78;1.67;;;21.80;99.90;;;;;;7388529;19;20179;-73
2023/07/20 05:31:06;;;;;;;6.60;4.05;;;21.80;99.90;;;;;;7385257;19;20150;-73
2023/07/20 05:33:32;;;;;;;4.20;2.40;;;21.90;99.90;;;;;;7387124;19;20223;-73
2023/07/20 05:35:57;;;;;;;3.30;1.20;;;22.10;99.90;;;;;;7384415;19;20199;-74
2023/07/20 05:38:23;;;;;;;3.22;1.60;;;22.20;99.90;;;;;;7386430;19;20135;-74
2023/07/20 05:40:49;;;;;;;4.65;1.38;;;22.20;99.80;;;;;;7383961;19;20202;-73
2023/07/20 05:43:15;;;;;;;2.30;1.38;;;22.10;99.90;;;;;;7387570;19;20146;-74
2023/07/20 05:45:45;;;;;;;3.20;1.20;;;22.20;99.90;;;;;;7382319;19;20202;-73
2023/07/20 05:48:11;;;;;;;6.60;2.67;;;22.20;99.90;;;;;;7379430;19;20169;-75
2023/07/20 05:50:38;;;;;;;5.78;1.98;;;22.20;99.90;;;;;;7382786;19;20150;-74
2023/07/20 05:53:03;;;;;;;4.68;1.70;;;22.20;99.90;;;;;;7385662;19;20138;-74
2023/07/20 05:55:29;;;;;;;2.25;1.40;;;22.20;99.90;;;;;;7381909;19;20160;-74
2023/07/20 05:57:55;;;;;;;2.20;1.30;;;22.00;99.90;;;;;;7383181;19;20135;-72
2023/07/20 06:00:26;;;;;;;3.20;1.20;;;22.10;99.90;;;;;;7383868;19;20229;-72
2023/07/20 06:02:53;;;;;;;3.83;1.40;;;21.90;99.90;;;;;;7385676;19;20651;-74
2023/07/20 06:05:20;;;;;;;4.45;3.42;;;22.10;99.90;;;;;;7385182;19;20230;-74
2023/07/20 06:07:46;;;;;;;6.32;2.97;;;22.30;99.90;;;;;;7386471;19;20143;-72
2023/07/20 06:10:12;;;;;;;5.32;2.92;;;22.20;99.90;;;;;;7384285;19;20217;-73
2023/07/20 06:12:38;;;;;;;7.32;1.80;;;22.40;99.90;;;;;;7386228;19;20143;-74
2023/07/20 06:15:05;;;;;;;3.65;1.85;;;22.60;99.90;;;;;;7384232;19;20135;-73
2023/07/20 06:17:31;;;;;;;2.08;1.77;;;22.70;99.80;;;;;;7384412;19;20158;-73
2023/07/20 06:19:56;;;;;;;2.55;1.67;;;22.70;99.90;;;;;;7385968;19;20135;-73
2023/07/20 06:22:22;;;;;;;3.25;1.80;;;22.90;99.90;;;;;;7386233;19;20153;-73
2023/07/20 06:24:48;;;;;;;3.45;1.92;;;23.10;99.80;;;;;;7381929;19;20317;-72
2023/07/20 06:27:13;;;;;;;2.70;1.50;;;23.30;99.70;;;;;;7383421;19;20231;-72
2023/07/20 06:29:39;;;;;;;2.17;1.25;;;24.90;97.30;;;;;;7382896;19;20138;-73
2023/07/20 06:32:06;;;;;;;2.10;1.38;;;24.90;96.80;;;;;;7383435;19;20242;-73
2023/07/20 06:34:36;;;;;;;1.80;1.42;;;25.30;96.20;;;;;;7382819;19;20158;-74
2023/07/20 06:37:03;;;;;;;3.28;1.40;;;25.40;95.90;;;;;;7384617;19;20154;-73
2023/07/20 06:39:29;;;;;;;2.95;1.45;;;25.40;95.60;;;;;;7389414;19;20163;-74
2023/07/20 06:41:55;;;;;;;4.43;1.65;;;25.60;95.70;;;;;;7389596;19;20165;-74
2023/07/20 06:44:21;;;;;;;7.00;2.03;;;26.60;94.40;;;;;;7388945;19;20162;-72
2023/07/20 06:46:46;;;;;;;4.55;1.70;;;27.80;92.70;;;;;;7383540;19;20659;-74
2023/07/20 06:49:27;;;;;;;2.85;1.70;;;28.90;91.10;;;;;;7388801;19;20130;-74
2023/07/20 06:51:53;;;;;;;3.42;1.52;;;29.80;88.70;;;;;;7389465;19;20133;-73
2023/07/20 06:54:19;;;;;;;4.10;2.15;;;30.30;85.90;;;;;;7390128;19;20580;-74
2023/07/20 06:56:44;;;;;;;2.28;1.33;;;29.70;86.60;;;;;;7389517;19;20127;-74
2023/07/20 06:59:10;;;;;;;2.75;1.67;;;30.90;84.60;;;;;;7390222;19;20150;-74
2023/07/20 07:01:36;;;;;;;3.15;1.80;;;31.70;82.30;;;;;;7387052;19;20149;-75
2023/07/20 07:04:02;;;;;;;2.92;1.58;;;32.00;80.30;;;;;;7390426;19;20491;-75
2023/07/20 07:06:28;;;;;;;8.30;6.30;;;30.50;80.90;;;;;;7386337;19;20138;-75
2023/07/20 07:08:54;;;;;;;4.82;3.58;;;29.20;83.40;;;;;;7390054;19;20614;-74
2023/07/20 07:11:23;;;;;;;3.67;1.90;;;28.60;86.60;;;;;;7388447;19;20214;-74
2023/07/20 07:13:51;;;;;;;3.50;1.77;;;29.50;85.20;;;;;;7390049;19;20161;-74
2023/07/20 07:16:19;;;;;;;3.13;1.50;;;30.40;82.80;;;;;;7388153;19;20172;-74
2023/07/20 07:18:45;;;;;;;2.92;1.42;;;30.80;81.10;;;;;;7392239;19;20564;-74
2023/07/20 07:21:11;;;;;;;3.65;2.35;;;30.90;80.70;;;;;;7387603;19;20156;-75
2023/07/20 07:23:40;;;;;;;2.65;1.40;;;31.40;78.50;;;;;;7389631;19;20583;-73
2023/07/20 07:26:06;;;;;;;3.35;2.40;;;30.80;78.80;;;;;;7387112;19;20146;-74
2023/07/20 07:28:32;;;;;;;3.08;1.60;;;30.50;79.30;;;;;;7388365;19;20154;-75
2023/07/20 07:30:58;;;;;;;3.00;1.85;;;30.50;79.00;;;;;;7390528;19;20206;-75
2023/07/20 07:33:24;;;;;;;2.42;1.50;;;30.50;79.20;;;;;;7391655;19;20142;-75
2023/07/20 07:35:51;;;;;;;3.20;1.50;;;30.80;78.80;;;;;;7389426;19;20127;-75
2023/07/20 07:38:17;;;;;;;2.15;1.27;;;30.50;79.30;;;;;;7390305;19;20135;-76
2023/07/20 07:40:43;;;;;;;4.30;3.30;;;30.10;80.60;;;;;;7387660;19;20154;-75
2023/07/20 07:43:09;;;;;;;2.90;2.38;;;29.80;81.20;;;;;;7389903;19;20146;-76
2023/07/20 07:45:36;;;;;;;2.97;1.55;;;30.70;78.90;;;;;;7385131;19;20591;-75
2023/07/20 07:48:03;;;;;;;3.05;2.38;;;30.60;78.20;;;;;;7385932;19;20150;-74
2023/07/20 07:50:28;;;;;;;4.55;3.97;;;30.70;77.90;;;;;;7387043;19;20179;-75
2023/07/20 07:52:54;;;;;;;3.55;2.00;;;30.60;78.10;;;;;;7385066;19;20143;-76
2023/07/20 07:55:20;;;;;;;3.35;2.00;;;30.40;77.80;;;;;;7387411;19;20154;-76
2023/07/20 07:57:47;;;;;;;2.78;1.90;;;30.20;78.90;;;;;;7388447;19;20160;-77
2023/07/20 08:00:18;;;;;;;4.10;2.63;;;29.80;77.80;;;;;;7384756;19;20154;-75
2023/07/20 08:02:48;;;;;;;3.72;2.92;;;29.80;78.80;;;;;;7388592;19;20150;-75
2023/07/20 08:05:14;;;;;;;5.18;2.80;;;29.60;79.40;;;;;;7388711;19;20159;-75
2023/07/20 08:07:42;;;;;;;3.15;1.63;;;29.10;79.70;;;;;;7387666;19;20214;-74
2023/07/20 08:10:08;;;;;;;2.53;2.10;;;28.40;81.10;;;;;;7387380;19;20175;-74
2023/07/20 08:12:34;;;;;;;3.90;2.40;;;27.70;83.30;;;;;;7389598;19;20134;-75
2023/07/20 08:15:00;;;;;;;2.60;1.70;;;27.20;85.30;;;;;;7386683;19;20622;-75
2023/07/20 08:17:25;;;;;;;2.38;1.65;;;27.10;85.40;;;;;;7386829;19;20168;-73
2023/07/20 08:19:51;;;;;;;4.35;2.08;;;26.30;84.90;;;;;;7387885;19;20158;-73
2023/07/20 08:22:17;;;;;;;2.33;1.60;;;26.30;86.40;;;;;;7388874;19;20169;-73
2023/07/20 08:24:43;;;;;;;5.85;2.60;;;27.10;85.00;;;;;;7384808;19;20154;-73
2023/07/20 08:27:10;;;;;;;3.28;2.60;;;27.70;83.20;;;;;;7385531;19;20142;-73
2023/07/20 08:29:36;;;;;;;1.70;1.27;;;27.60;83.60;;;;;;7386257;19;20176;-73
2023/07/20 08:32:06;;;;;;;4.15;1.70;;;27.00;83.40;;;;;;7389648;19;20150;-74
2023/07/20 08:34:31;;;;;;;2.40;1.95;;;27.20;84.60;;;;;;7387363;19;20146;-73
2023/07/20 08:36:58;;;;;;;1.67;1.45;;;27.60;83.40;;;;;;7385967;19;20139;-74
2023/07/20 08:39:24;;;;;;;14.15;11.57;;;26.90;84.90;;;;;;7385283;19;20134;-73
2023/07/20 08:41:51;;;;;;;4.40;2.53;;;26.40;86.40;;;;;;7389709;19;20161;-74
2023/07/20 08:44:17;;;;;;;2.03;1.63;;;25.90;87.70;;;;;;7385667;19;20142;-74
2023/07/20 08:46:44;;;;;;;3.08;1.73;;;25.70;89.10;;;;;;7383812;19;20162;-74
2023/07/20 08:49:11;;;;;;;1.63;1.42;;;26.30;87.60;;;;;;7385344;19;20143;-74
2023/07/20 08:51:38;;;;;;;1.73;1.30;;;26.80;86.40;;;;;;7386722;19;20221;-75
2023/07/20 08:54:04;;;;;;;3.15;1.50;;;27.00;85.60;;;;;;7388511;19;20134;-75
2023/07/20 08:56:33;;;;;;;2.65;1.30;;;27.30;85.20;;;;;;7387548;19;20206;-75
2023/07/20 08:59:00;;;;;;;5.30;1.67;;;27.50;84.10;;;;;;7382752;19;20598;-76
2023/07/20 09:01:28;;;;;;;8.80;1.80;;;27.50;84.20;;;;;;7383229;19;20162;-74
2023/07/20 09:03:54;;;;;;;4.82;1.38;;;27.10;85.10;;;;;;7387182;19;20127;-74
2023/07/20 09:06:19;;;;;;;3.85;1.48;;;26.60;85.70;;;;;;7383423;19;20127;-74
2023/07/20 09:08:45;;;;;;;2.65;2.00;;;26.60;86.20;;;;;;7385552;19;20713;-75
2023/07/20 09:11:12;;;;;;;2.72;1.30;;;26.90;85.90;;;;;;7384206;19;20615;-74
2023/07/20 09:13:45;;;;;;;2.95;1.35;;;27.30;84.80;;;;;;7385555;19;20442;-74
2023/07/20 09:16:14;;;;;;;3.28;2.10;;;27.10;84.60;;;;;;7383709;19;20134;-73
2023/07/20 09:18:41;;;;;;;2.13;1.45;;;26.70;84.80;;;;;;7386518;19;20202;-75
2023/07/20 09:21:07;;;;;;;2.83;2.30;;;26.50;84.30;;;;;;7388637;19;20131;-76
2023/07/20 09:23:39;;;;;;;3.60;1.15;;;26.20;84.20;;;;;;7385403;19;20202;-76
2023/07/20 09:26:15;;;;;;;3.13;1.50;;;26.00;84.10;;;;;;7381927;19;20134;-78
2023/07/20 09:28:51;;;;;;;1.67;1.40;;;26.00;84.60;;;;;;7388036;19;20645;-76
2023/07/20 09:31:18;;;;;;;1.58;1.15;;;26.50;83.60;;;;;;7386660;19;20142;-76
2023/07/20 09:33:45;;;;;;;2.20;1.42;;;27.10;81.90;;;;;;7383095;19;20131;-75
2023/07/20 09:36:14;;;;;;;1.73;1.52;;;27.20;80.80;;;;;;7385960;19;20869;-75
2023/07/20 09:38:43;;;;;;;2.85;1.30;;;26.90;81.70;;;;;;7384025;19;20172;-74
2023/07/20 09:41:15;;;;;;;2.35;1.40;;;26.30;82.40;;;;;;7387063;19;20138;-75
2023/07/20 09:43:41;;;;;;;2.00;1.38;;;25.70;84.30;;;;;;7384278;19;20222;-76
2023/07/20 09:46:07;;;;;;;3.40;1.45;;;25.40;85.60;;;;;;7383204;19;20444;-75
2023/07/20 09:48:33;;;;;;;1.98;1.58;;;25.40;86.30;;;;;;7382991;19;20229;-76
2023/07/20 09:50:59;;;;;;;2.95;1.60;;;25.60;84.80;;;;;;7385248;19;20169;-76
2023/07/20 09:53:27;;;;;;;1.58;1.02;;;26.00;84.00;;;;;;7384263;19;20134;-76
2023/07/20 09:55:54;;;;;;;2.80;1.45;;;26.50;82.00;;;;;;7385349;19;20202;-76
2023/07/20 09:58:21;;;;;;;2.25;1.45;;;26.70;81.20;;;;;;7381456;19;20138;-76
2023/07/20 10:00:51;;;;;;;5.55;2.00;;;26.40;82.00;;;;;;7384679;19;20143;-76
2023/07/20 10:03:29;;;;;;;2.13;1.25;;;26.00;82.50;;;;;;7381628;19;20150;-76
2023/07/20 10:05:59;;;;;;;2.05;1.15;;;25.80;82.20;;;;;;7382445;19;20149;-77
2023/07/20 10:08:26;;;;;;;2.95;1.35;;;25.60;82.30;;;;;;7384206;19;20618;-76
2023/07/20 10:10:52;;;;;;;2.53;1.85;;;25.50;81.70;;;;;;7380316;19;20139;-76
2023/07/20 10:13:21;;;;;;;2.15;1.30;;;25.50;83.50;;;;;;7389368;19;20153;-78
2023/07/20 10:15:53;;;;;;;1.20;0.90;;;25.90;80.90;;;;;;7391274;19;20247;-79
2023/07/20 10:18:24;;;;;;;2.10;1.38;;;25.60;81.00;;;;;;7391505;19;20209;-77
2023/07/20 10:20:54;;;;;;;1.25;1.13;;;25.50;82.00;;;;;;7389102;19;20161;-77
2023/07/20 10:23:20;;;;;;;1.55;1.20;;;25.80;82.10;;;;;;7391272;19;20139;-77
2023/07/20 10:25:47;;;;;;;1.50;1.10;;;26.20;80.00;;;;;;7389289;19;20156;-78
2023/07/20 10:28:13;;;;;;;1.25;1.08;;;26.40;77.90;;;;;;7389855;19;20154;-77
2023/07/20 10:30:39;;;;;;;4.30;1.30;;;26.20;77.70;;;;;;7391969;19;20145;-76
2023/07/20 10:33:06;;;;;;;1.23;1.00;;;26.10;78.10;;;;;;7390619;19;20202;-75
2023/07/20 10:36:00;;;;;;;2.65;1.10;;;26.00;77.90;;;;;;7392295;19;20135;-77
2023/07/20 10:38:58;;;;;;;1.45;1.15;;;26.00;78.40;;;;;;7390244;19;20864;-77
2023/07/20 10:42:00;;;;;;;2.28;1.45;;;26.10;77.80;;;;;;7389412;19;20149;-79
2023/07/20 10:44:28;;;;;;;1.75;1.40;;;26.30;77.70;;;;;;7392151;19;20202;-76
2023/07/20 10:47:09;;;;;;;2.20;1.48;;;26.60;77.70;;;;;;7388238;19;20151;-77
2023/07/20 10:49:38;;;;;;;1.92;1.50;;;26.70;76.10;;;;;;7389643;19;20130;-77
2023/07/20 10:52:05;;;;;;;2.08;1.20;;;26.40;75.70;;;;;;7390381;19;20550;-77
2023/07/20 10:54:32;;;;;;;3.58;2.72;;;26.30;75.70;;;;;;7389769;19;20174;-78
2023/07/20 10:57:18;;;;;;;2.97;2.30;;;26.50;76.40;;;;;;7387466;19;20551;-74
2023/07/20 10:59:47;;;;;;;1.50;1.20;;;26.50;76.00;;;;;;7388415;19;20142;-72
2023/07/20 11:02:13;;;;;;;3.47;1.30;;;26.50;75.00;;;;;;7388328;19;20157;-74
2023/07/20 11:04:43;;;;;;;3.10;1.17;;;26.10;74.50;;;;;;7387922;19;20142;-71
2023/07/20 11:07:09;;;;;;;1.10;1.00;;;25.90;75.70;;;;;;7385290;19;20217;-72
2023/07/20 11:09:38;;;;;;;2.25;1.70;;;25.90;75.70;;;;;;7389331;19;20151;-73
2023/07/20 11:12:15;;;;;;;2.88;1.77;;;26.10;76.50;;;;;;7387420;19;20141;-73
2023/07/20 11:14:43;;;;;;;2.90;1.13;;;26.50;75.30;;;;;;7388623;19;20210;-74
2023/07/20 11:17:15;;;;;;;1.60;1.00;;;26.80;73.50;;;;;;7388321;19;20135;-73
2023/07/20 11:19:42;;;;;;;2.80;2.50;;;26.60;72.80;;;;;;7385304;19;20176;-73
2023/07/20 11:22:08;;;;;;;3.33;1.70;;;26.30;73.10;;;;;;7386832;19;20274;-73
2023/07/20 11:24:34;;;;;;;1.67;0.90;;;26.00;73.60;;;;;;7386552;19;21523;-73
2023/07/20 11:27:03;;;;;;;5.00;1.05;;;25.90;72.90;;;;;;7387850;19;20142;-73
2023/07/20 11:29:29;;;;;;;2.85;1.85;;;25.90;73.70;;;;;;7386771;19;20161;-72
2023/07/20 11:31:56;;;;;;;4.00;1.35;;;26.00;73.40;;;;;;7389552;19;20187;-72
2023/07/20 11:34:21;;;;;;;2.60;1.13;;;26.00;73.30;;;;;;7387359;19;20494;-71
2023/07/20 11:36:49;;;;;;;1.02;0.80;;;25.80;73.50;;;;;;7389489;19;20134;-73
2023/07/20 11:39:19;;;;;;;2.13;1.10;;;25.70;73.30;;;;;;7388803;19;20130;-72
2023/07/20 11:44:52;;;;;;;4.47;3.42;;;25.90;74.90;;;;;;7388231;19;20474;-71
2023/07/20 11:47:18;;;;;;;2.22;1.90;;;26.10;73.50;;;;;;7384888;19;20838;-72
2023/07/20 11:49:49;;;;;;;2.03;1.52;;;26.00;73.00;;;;;;7389183;19;20234;-73
2023/07/20 11:52:27;;;;;;;2.47;1.30;;;26.10;73.00;;;;;;7388417;19;20153;-74
2023/07/20 11:54:58;;;;;;;2.33;1.42;;;26.30;73.10;;;;;;7387276;19;20150;-73
2023/07/20 11:57:34;;;;;;;3.15;1.08;;;26.40;72.40;;;;;;7386848;19;20139;-72
2023/07/20 12:00:11;;;;;;;2.10;1.30;;;26.50;71.60;;;;;;7388098;19;20134;-73
2023/07/20 12:02:39;;;;;;;1.88;1.15;;;26.40;70.90;;;;;;7389375;19;20374;-73
2023/07/20 12:05:05;;;;;;;0.95;0.85;;;26.10;71.80;;;;;;7385902;19;20485;-75
2023/07/20 12:07:36;;;;;;;4.05;1.33;;;26.20;72.30;;;;;;7384595;19;20138;-75
2023/07/20 12:10:09;;;;;;;3.00;1.15;;;26.40;70.30;;;;;;7384806;19;20591;-74
2023/07/20 12:12:42;;;;;;;1.42;1.00;;;26.30;70.40;;;;;;7384777;19;20161;-74
2023/07/20 12:15:31;;;;;;;1.98;0.90;;;26.30;70.60;;;;;;7383961;19;20250;-75
2023/07/20 12:18:02;;;;;;;6.43;5.22;;;26.50;70.30;;;;;;7386598;19;20138;-73
2023/07/20 12:20:36;;;;;;;3.42;1.15;;;26.70;70.20;;;;;;7386736;19;20138;-74
2023/07/20 12:23:10;;;;;;;0.90;0.80;;;26.60;69.00;;;;;;7389306;19;20134;-73
2023/07/20 12:25:43;;;;;;;1.65;1.05;;;26.60;69.00;;;;;;7386534;19;20552;-73
2023/07/20 12:28:10;;;;;;;1.92;1.27;;;26.60;68.90;;;;;;7381892;19;20746;-74
2023/07/20 12:30:37;;;;;;;2.38;1.08;;;26.50;69.80;;;;;;7387633;19;20141;-74
2023/07/20 12:33:04;;;;;;;1.77;1.05;;;26.80;69.60;;;;;;7386164;19;20631;-73
2023/07/20 12:35:33;;;;;;;1.15;0.85;;;27.00;69.00;;;;;;7386596;19;20165;-74
2023/07/20 12:37:59;;;;;;;2.60;1.10;;;27.20;67.30;;;;;;7385695;19;20468;-73
2023/07/20 12:40:25;;;;;;;1.10;0.75;;;27.30;67.00;;;;;;7385300;19;20229;-73
2023/07/20 12:42:51;;;;;;;1.60;1.05;;;27.10;67.80;;;;;;7386303;19;20165;-73
2023/07/20 12:45:17;;;;;;;1.17;1.00;;;26.70;69.20;;;;;;7384829;19;20470;-74
2023/07/20 12:47:43;;;;;;;1.08;0.88;;;26.70;69.40;;;;;;7384231;19;20207;-74
2023/07/20 12:50:10;;;;;;;1.52;0.85;;;26.70;69.20;;;;;;7385643;19;20158;-73
2023/07/20 12:52:38;;;;;;;1.83;1.02;;;26.60;68.80;;;;;;7386910;19;20620;-73
2023/07/20 12:55:11;;;;;;;1.92;1.00;;;26.50;69.30;;;;;;7384318;19;20146;-74